Main page
METAR-TAF:

METAR-TAF

Airports :

Ozark Regional Airport

Mountain Home, Arkansas, United States

latitude: 36-22-14N, longitude: 092-28-19W, elevation: 925 ft

Current weather observation

The report was made 12 minutes ago, at 06:53 UTC
Calm wind
Temperature 41°F
Humidity 81%
Pressure 30.24 in. Hg
Visibility: 10 miles
Clear sky

METAR: KBPK 220653Z AUTO 00000KT 10SM CLR 05/02 A3024 RMK AO2 SLP238 T00500017

Time: 02:05 (07:05 UTC)

Forecast

The report was made 1 hour and 45 minutes ago, at 05:20 UTC
Forecast valid from 22 at 06 UTC to 23 at 06 UTC
Wind 3 mph from variable directions
Visibility: 6 miles
Clear sky
From 22 at 1500 UTC
Wind 9 mph from the South/Southwest with gusts up to 18 mph
Visibility: 6 miles
Clear sky
From 23 at 0100 UTC
Wind 8 mph from the South
Visibility: 6 miles
Clear sky

TAF: KBPK 220520Z 2206/2306 VRB03KT P6SM SKC FM221500 20008G16KT P6SM SKC FM230100 18007KT P6SM SKC

Weather observations and forecasts of more than 4000 airports (METAR and TAF reports).

The available stations are represented by yellow and red dots on the map.

Hover mouse over dot to see the name of the station.

Then click to see weather observations and forecasts.

To change the map : click on the green buttons with a black cross to zoom in, on the green button with a dash to zoom out, or on the green arrows for adjacent maps.


METAR-TAF: